createdAt,value
2019-04-04T00:01:25.625Z,98.70
2019-04-04T00:06:17.024Z,98.50
2019-04-04T00:11:08.382Z,98.90
2019-04-04T00:15:59.728Z,99.30
2019-04-04T00:20:51.152Z,99.90
2019-04-04T00:25:42.509Z,99.90
2019-04-04T00:30:33.928Z,99.90
2019-04-04T00:35:25.295Z,99.90
2019-04-04T00:40:16.680Z,99.90
2019-04-04T00:45:08.136Z,99.90
2019-04-04T00:50:01.727Z,99.90
2019-04-04T00:54:53.190Z,99.90
2019-04-04T00:59:44.573Z,99.90
2019-04-04T01:04:35.992Z,99.90
2019-04-04T01:09:27.330Z,99.90
2019-04-04T01:14:18.785Z,99.90
2019-04-04T01:19:10.883Z,99.90
2019-04-04T01:24:01.637Z,99.90
2019-04-04T01:28:55.259Z,99.90
2019-04-04T01:33:50.767Z,99.90
2019-04-04T01:38:40.397Z,99.90
2019-04-04T01:43:34.018Z,99.90
2019-04-04T01:48:27.654Z,99.90
2019-04-04T01:53:19.101Z,99.90
2019-04-04T01:58:11.125Z,99.90
2019-04-04T02:03:01.910Z,99.90
2019-04-04T02:07:55.469Z,99.90
2019-04-04T02:12:51.412Z,99.90
2019-04-04T02:17:42.901Z,99.90
2019-04-04T02:22:34.275Z,99.90
2019-04-04T02:32:19.250Z,99.90
2019-04-04T02:37:12.867Z,99.90
2019-04-04T02:42:06.538Z,99.90
2019-04-04T02:46:57.986Z,99.90
2019-04-04T02:51:49.337Z,99.90
2019-04-04T02:56:40.781Z,99.90
2019-04-04T03:01:34.384Z,99.90
2019-04-04T03:06:28.170Z,99.90
2019-04-04T03:11:23.229Z,99.90
2019-04-04T03:16:15.471Z,99.90
2019-04-04T03:21:06.957Z,99.90
2019-04-04T03:25:58.364Z,99.90
2019-04-04T03:31:04.057Z,99.90
2019-04-04T03:35:41.108Z,99.90
2019-04-04T03:40:32.500Z,99.90
2019-04-04T03:45:27.860Z,99.90
2019-04-04T03:50:15.221Z,99.90
2019-04-04T03:55:06.639Z,99.90
2019-04-04T03:59:58.001Z,99.90
2019-04-04T04:04:49.423Z,99.90
2019-04-04T04:09:40.792Z,99.90
2019-04-04T04:14:32.222Z,99.90
2019-04-04T04:19:31.353Z,99.90
2019-04-04T04:24:15.021Z,99.90
2019-04-04T04:29:06.333Z,99.90
2019-04-04T04:34:02.192Z,99.90
2019-04-04T04:38:49.149Z,99.90
2019-04-04T04:43:40.565Z,99.90
2019-04-04T04:48:32.467Z,99.90
2019-04-04T04:53:23.405Z,99.90
2019-04-04T04:58:14.697Z,99.90
2019-04-04T05:03:06.076Z,99.90
2019-04-04T05:07:57.498Z,99.90
2019-04-04T05:12:48.937Z,99.90
2019-04-04T05:17:42.808Z,99.90
2019-04-04T05:22:31.697Z,99.90
2019-04-04T05:27:22.993Z,99.90
2019-04-04T05:32:14.484Z,99.90
2019-04-04T05:37:08.271Z,99.90
2019-04-04T05:42:01.378Z,99.90
2019-04-04T05:46:52.436Z,99.90
2019-04-04T05:51:40.025Z,99.90
2019-04-04T05:56:31.423Z,99.90
2019-04-04T06:01:22.866Z,99.90
2019-04-04T06:06:14.207Z,99.90
2019-04-04T06:11:05.599Z,99.90
2019-04-04T06:15:56.963Z,99.90
2019-04-04T06:20:49.432Z,99.90
2019-04-04T06:25:39.740Z,99.90
2019-04-04T06:30:44.079Z,99.90
2019-04-04T06:35:22.469Z,99.90
2019-04-04T06:40:13.864Z,99.90
2019-04-04T06:45:05.339Z,99.90
2019-04-04T06:49:56.787Z,99.90
2019-04-04T06:54:48.198Z,99.90
2019-04-04T06:59:44.243Z,99.90
2019-04-04T07:04:36.302Z,99.90
2019-04-04T07:09:22.373Z,99.90
2019-04-04T07:14:13.792Z,99.90
2019-04-04T07:19:08.587Z,99.90
2019-04-04T07:24:00.356Z,99.90
2019-04-04T07:28:54.198Z,99.90
2019-04-04T07:33:43.564Z,99.90
2019-04-04T07:38:30.817Z,99.90
2019-04-04T07:43:22.221Z,99.90
2019-04-04T07:48:13.943Z,99.90
2019-04-04T07:53:05.880Z,99.90
2019-04-04T07:57:56.746Z,99.90
2019-04-04T08:02:48.135Z,99.90
2019-04-04T08:07:39.477Z,99.90
2019-04-04T08:12:30.867Z,99.90
2019-04-04T08:17:22.335Z,99.90
2019-04-04T08:22:13.978Z,99.90
2019-04-04T08:27:05.112Z,99.90
2019-04-04T08:31:56.437Z,94.80
2019-04-04T08:36:47.870Z,95.70
2019-04-04T08:41:39.307Z,96.50
2019-04-04T08:46:30.693Z,97.50
2019-04-04T08:51:22.001Z,97.20
2019-04-04T08:56:13.449Z,96.30
2019-04-04T09:01:04.772Z,96.70
2019-04-04T09:05:56.209Z,98.00
2019-04-04T09:10:47.556Z,97.10
2019-04-04T09:15:41.200Z,95.60
2019-04-04T09:20:39.432Z,97.60
2019-04-04T09:25:30.898Z,96.70
2019-04-04T09:30:24.479Z,94.40
2019-04-04T09:35:15.949Z,98.00
2019-04-04T09:40:11.824Z,96.50
2019-04-04T09:45:03.257Z,96.50
2019-04-04T09:50:46.527Z,95.10
2019-04-04T09:55:38.002Z,97.60
2019-04-04T10:00:33.928Z,99.90
2019-04-04T10:05:25.388Z,99.90
2019-04-04T10:10:16.725Z,99.90
2019-04-04T10:15:08.205Z,99.90
2019-04-04T10:19:59.567Z,99.90
2019-04-04T10:24:53.149Z,99.90
2019-04-04T10:29:44.560Z,99.90
2019-04-04T10:34:36.035Z,99.90
2019-04-04T10:39:33.006Z,99.90
2019-04-04T10:44:18.829Z,99.90
2019-04-04T10:49:10.135Z,99.90
2019-04-04T10:54:01.559Z,99.90
2019-04-04T10:58:52.897Z,99.30
2019-04-04T11:03:44.345Z,99.90
2019-04-04T11:08:35.708Z,99.90
2019-04-04T11:13:34.409Z,97.10
2019-04-04T11:18:18.515Z,98.90
2019-04-04T11:23:09.881Z,96.40
2019-04-04T11:28:01.309Z,99.30
2019-04-04T11:32:52.698Z,99.90
2019-04-04T11:37:44.086Z,99.00
2019-04-04T11:42:35.525Z,98.70
2019-04-04T11:47:26.914Z,97.80
2019-04-04T11:52:18.283Z,96.10
2019-04-04T11:57:09.642Z,95.90
2019-04-04T12:02:03.304Z,93.10
2019-04-04T12:06:56.997Z,90.70
2019-04-04T12:11:48.426Z,91.20
2019-04-04T12:16:39.795Z,91.50
2019-04-04T12:21:31.233Z,92.40
2019-04-04T12:26:22.629Z,93.10
2019-04-04T12:31:16.212Z,90.20
2019-04-04T12:36:09.945Z,91.50
2019-04-04T12:41:01.403Z,92.10
2019-04-04T12:45:53.256Z,92.80
2019-04-04T12:50:48.382Z,92.50
2019-04-04T12:55:37.891Z,93.30
2019-04-04T13:00:29.228Z,97.60
2019-04-04T13:05:20.659Z,97.40
2019-04-04T13:10:12.703Z,99.60
2019-04-04T13:15:03.467Z,95.40
2019-04-04T13:19:54.870Z,96.10
2019-04-04T13:24:46.316Z,98.00
2019-04-04T13:29:37.650Z,98.60
2019-04-04T13:34:29.092Z,98.70
2019-04-04T13:39:20.705Z,96.80
2019-04-04T13:44:11.896Z,94.40
2019-04-04T13:49:05.466Z,91.90
2019-04-04T13:53:57.542Z,85.40
2019-04-04T13:58:48.280Z,86.70
2019-04-04T14:03:42.002Z,78.90
2019-04-04T14:08:33.409Z,79.30
2019-04-04T14:13:26.691Z,78.80
2019-04-04T14:18:16.339Z,78.90
2019-04-04T14:23:07.698Z,79.30
2019-04-04T14:27:59.085Z,79.70
2019-04-04T14:32:50.421Z,83.40
2019-04-04T14:37:41.781Z,82.40
2019-04-04T14:42:33.235Z,82.00
2019-04-04T14:47:24.618Z,81.70
2019-04-04T14:52:20.844Z,82.60
2019-04-04T14:57:07.421Z,82.90
2019-04-04T15:01:58.813Z,86.90
2019-04-04T15:06:50.198Z,87.20
2019-04-04T15:11:41.594Z,87.60
2019-04-04T15:16:35.199Z,83.80
2019-04-04T15:21:28.847Z,84.80
2019-04-04T15:26:20.259Z,83.50
2019-04-04T15:31:14.068Z,83.90
2019-04-04T15:36:07.729Z,80.80
2019-04-04T15:40:59.174Z,81.40
2019-04-04T15:45:50.564Z,76.90
2019-04-04T15:50:44.163Z,81.00
2019-04-04T15:55:35.626Z,78.90
2019-04-04T16:00:27.015Z,75.30
2019-04-04T16:05:18.446Z,78.70
2019-04-04T16:15:03.487Z,71.90
2019-04-04T16:19:54.865Z,74.20
2019-04-04T16:24:46.312Z,75.50
2019-04-04T16:29:37.668Z,76.60
2019-04-04T16:34:29.065Z,73.90
2019-04-04T16:39:20.435Z,75.00
2019-04-04T16:44:11.838Z,76.80
2019-04-04T16:49:03.261Z,70.80
2019-04-04T16:53:54.653Z,73.80
2019-04-04T16:58:46.024Z,77.20
2019-04-04T17:03:37.404Z,76.90
2019-04-04T17:08:28.853Z,75.00
2019-04-04T17:13:20.246Z,76.20
2019-04-04T17:18:11.674Z,79.50
2019-04-04T17:23:05.293Z,80.50
2019-04-04T17:27:56.842Z,83.90
2019-04-04T17:32:50.564Z,83.40
2019-04-04T17:37:40.143Z,82.50
2019-04-04T17:42:34.443Z,83.70
2019-04-04T17:47:23.012Z,85.10
2019-04-04T17:52:16.111Z,86.30
2019-04-04T17:57:09.738Z,87.70
2019-04-04T18:02:01.205Z,86.50
2019-04-04T18:06:52.659Z,87.90
2019-04-04T18:11:44.059Z,87.20
2019-04-04T18:16:35.415Z,87.60
2019-04-04T18:21:26.912Z,86.10
2019-04-04T18:26:18.207Z,86.30
2019-04-04T18:31:09.626Z,89.20
2019-04-04T18:36:03.595Z,91.00
2019-04-04T18:40:54.733Z,89.00
2019-04-04T18:45:46.116Z,88.80
2019-04-04T18:50:37.454Z,91.70
2019-04-04T18:55:28.801Z,90.90
2019-04-04T19:05:13.848Z,93.30
2019-04-04T19:10:05.240Z,95.70
2019-04-04T19:14:58.843Z,99.10
2019-04-04T19:19:50.293Z,96.00
2019-04-04T19:24:41.721Z,96.30
2019-04-04T19:29:33.143Z,98.30
2019-04-04T19:34:24.486Z,99.90
2019-04-04T19:39:15.867Z,99.90
2019-04-04T19:44:07.324Z,99.90
2019-04-04T19:48:58.699Z,99.90
2019-04-04T19:53:50.105Z,99.90
2019-04-04T19:58:43.735Z,99.90
2019-04-04T20:03:37.469Z,99.90
2019-04-04T20:08:28.822Z,99.90
2019-04-04T20:13:31.734Z,99.90
2019-04-04T20:18:13.902Z,99.90
2019-04-04T20:23:05.311Z,99.90
2019-04-04T20:27:56.748Z,99.90
2019-04-04T20:32:48.189Z,99.90
2019-04-04T20:37:41.754Z,99.90
2019-04-04T20:42:33.231Z,99.90
2019-04-04T20:47:26.853Z,99.90
2019-04-04T20:52:20.503Z,99.90
2019-04-04T20:57:11.957Z,99.90
2019-04-04T21:02:10.089Z,99.90
2019-04-04T21:07:03.759Z,99.90
2019-04-04T21:11:57.467Z,99.90
2019-04-04T21:16:48.886Z,99.90
2019-04-04T21:21:40.305Z,99.90
2019-04-04T21:26:31.701Z,99.90
2019-04-04T21:31:23.065Z,99.90
2019-04-04T21:36:14.453Z,99.90
2019-04-04T21:41:05.849Z,99.90
2019-04-04T21:45:59.496Z,99.90
2019-04-04T21:50:50.949Z,99.90
2019-04-04T21:55:44.555Z,99.90
2019-04-04T22:00:35.944Z,99.90
2019-04-04T22:05:27.467Z,99.90
2019-04-04T22:10:18.763Z,99.50
2019-04-04T22:15:10.234Z,99.90
2019-04-04T22:20:01.595Z,99.90
2019-04-04T22:24:55.212Z,99.30
2019-04-04T22:29:46.728Z,98.20
2019-04-04T22:34:38.218Z,99.90
2019-04-04T22:39:29.513Z,99.60
2019-04-04T22:44:35.219Z,99.90
2019-04-04T22:49:12.367Z,99.90
2019-04-04T22:54:05.932Z,98.60
2019-04-04T22:58:59.671Z,98.00
2019-04-04T23:03:53.335Z,97.90
2019-04-04T23:08:44.793Z,96.50
2019-04-04T23:13:36.168Z,95.80
2019-04-04T23:18:27.594Z,98.20
2019-04-04T23:23:18.924Z,98.50
2019-04-04T23:28:10.342Z,99.00
2019-04-04T23:33:01.714Z,98.60
2019-04-04T23:37:53.173Z,99.10
2019-04-04T23:42:44.499Z,99.10
2019-04-04T23:47:43.926Z,97.40
2019-04-04T23:52:27.330Z,97.10
2019-04-04T23:57:20.945Z,98.20
